createdAt,value
2022-10-05T00:02:14.936Z,97861.50
2022-10-05T00:12:19.731Z,97831.81
2022-10-05T00:22:24.632Z,97814.34
2022-10-05T00:32:27.118Z,97794.44
2022-10-05T00:42:49.413Z,97767.72
2022-10-05T00:53:05.220Z,97766.72
2022-10-05T01:03:26.260Z,97771.19
2022-10-05T01:13:56.808Z,97760.34
2022-10-05T01:24:17.515Z,97767.69
2022-10-05T01:34:42.896Z,97772.59
2022-10-05T01:45:02.612Z,97773.41
2022-10-05T01:55:29.364Z,97772.53
2022-10-05T02:05:43.780Z,97761.25
2022-10-05T02:15:51.977Z,97793.47
2022-10-05T02:25:56.207Z,97781.53
2022-10-05T02:36:27.720Z,97781.22
2022-10-05T02:46:53.128Z,97780.16
2022-10-05T02:57:03.628Z,97779.72
2022-10-05T03:07:36.596Z,97753.31
2022-10-05T03:17:54.461Z,97737.41
2022-10-05T03:28:16.387Z,97755.34
2022-10-05T03:38:24.005Z,97762.06
2022-10-05T03:48:38.319Z,97742.56
2022-10-05T03:58:53.587Z,97749.66
2022-10-05T04:09:17.238Z,97721.59
2022-10-05T04:19:32.446Z,97719.84
2022-10-05T04:29:34.510Z,97727.31
2022-10-05T04:40:02.036Z,97717.06
2022-10-05T04:50:13.160Z,97712.84
2022-10-05T05:00:18.509Z,97708.56
2022-10-05T05:10:41.057Z,97729.94
2022-10-05T05:21:08.692Z,97719.84
2022-10-05T05:31:24.451Z,97724.50
2022-10-05T05:41:54.659Z,97717.06
2022-10-05T05:52:14.593Z,97738.47
2022-10-05T06:02:21.749Z,97753.06
2022-10-05T06:12:34.333Z,97766.75
2022-10-05T06:22:41.944Z,97762.47
2022-10-05T06:32:50.074Z,97775.91
2022-10-05T06:43:17.293Z,97794.38
2022-10-05T06:53:44.167Z,97777.34
2022-10-05T07:03:52.132Z,97750.94
2022-10-05T07:14:13.023Z,97763.00
2022-10-05T07:24:34.681Z,97767.78
2022-10-05T07:35:08.246Z,97765.06
2022-10-05T07:45:26.335Z,97756.81
2022-10-05T07:55:36.794Z,97758.78
2022-10-05T08:05:42.518Z,97763.72
2022-10-05T08:15:49.707Z,97759.28
2022-10-05T08:26:05.479Z,97752.22
2022-10-05T08:36:12.584Z,97745.66
2022-10-05T08:46:39.790Z,97730.06
2022-10-05T08:57:19.225Z,97745.22
2022-10-05T09:07:46.444Z,97747.38
2022-10-05T09:18:07.370Z,97737.03
2022-10-05T09:28:21.457Z,97712.72
2022-10-05T09:39:00.679Z,97688.78
2022-10-05T09:49:08.628Z,97678.53
2022-10-05T09:59:28.867Z,97674.81
2022-10-05T10:10:00.444Z,97673.72
2022-10-05T10:20:12.977Z,97657.81
2022-10-05T10:30:38.249Z,97655.13
2022-10-05T10:41:01.217Z,97660.75
2022-10-05T10:51:06.358Z,97641.59
2022-10-05T11:01:33.103Z,97635.47
2022-10-05T11:11:54.617Z,97613.22
2022-10-05T11:22:20.032Z,97612.19
2022-10-05T11:32:37.112Z,97585.53
2022-10-05T11:42:51.231Z,97576.03
2022-10-05T11:53:04.881Z,97567.34
2022-10-05T12:03:34.098Z,97558.44
2022-10-05T12:13:54.859Z,97551.88
2022-10-05T12:24:02.960Z,97563.16
2022-10-05T12:34:08.196Z,97567.06
2022-10-05T12:44:32.868Z,97577.41
2022-10-05T12:54:57.980Z,97563.97
2022-10-05T13:05:05.701Z,97586.34
2022-10-05T13:15:21.160Z,97573.69
2022-10-05T13:25:36.830Z,97565.47
2022-10-05T13:35:57.455Z,97558.84
2022-10-05T13:46:23.028Z,97532.66
2022-10-05T13:56:33.777Z,97543.94
2022-10-05T14:06:39.232Z,97537.84
2022-10-05T14:16:52.855Z,97542.72
2022-10-05T14:26:56.570Z,97540.31
2022-10-05T14:37:07.315Z,97533.44
2022-10-05T14:47:18.726Z,97523.03
2022-10-05T14:57:42.362Z,97522.56
2022-10-05T15:07:50.202Z,97518.84
2022-10-05T15:18:00.512Z,97516.88
2022-10-05T15:28:26.002Z,97512.38
2022-10-05T15:38:36.772Z,97516.53
2022-10-05T15:48:39.481Z,97512.44
2022-10-05T15:58:53.572Z,97518.88
2022-10-05T16:09:01.264Z,97520.78
2022-10-05T16:19:12.753Z,97536.06
2022-10-05T16:29:38.399Z,97528.16
2022-10-05T16:39:49.569Z,97523.72
2022-10-05T16:50:04.287Z,97526.00
2022-10-05T17:00:08.919Z,97536.38
2022-10-05T17:10:48.668Z,97530.66
2022-10-05T17:21:01.147Z,97523.31
2022-10-05T17:31:12.504Z,97537.34
2022-10-05T17:41:18.786Z,97532.63
2022-10-05T17:51:48.563Z,97506.53
2022-10-05T18:02:19.694Z,97494.03
2022-10-05T18:12:21.805Z,97486.94
2022-10-05T18:22:28.222Z,97482.09
2022-10-05T18:32:39.600Z,97474.44
2022-10-05T18:42:55.469Z,97486.47
2022-10-05T18:53:13.616Z,97486.72
2022-10-05T19:03:28.322Z,97478.59
2022-10-05T19:13:51.868Z,97486.88
2022-10-05T19:24:27.956Z,97488.78
2022-10-05T19:34:52.148Z,97485.41
2022-10-05T19:45:15.776Z,97497.59
2022-10-05T19:55:26.504Z,97499.97
2022-10-05T20:05:28.917Z,97505.84
2022-10-05T20:15:52.740Z,97517.06
2022-10-05T20:26:13.448Z,97535.94
2022-10-05T20:40:11.164Z,97576.84
2022-10-05T20:50:14.559Z,97587.91
2022-10-05T21:00:16.661Z,97609.19
2022-10-05T21:10:18.764Z,97595.13
2022-10-05T21:20:20.863Z,97601.25
2022-10-05T21:30:23.019Z,97631.47
2022-10-05T21:40:25.110Z,97668.03
2022-10-05T21:50:27.393Z,97686.09
2022-10-05T22:00:30.570Z,97705.75
2022-10-05T22:10:33.750Z,97710.41
2022-10-05T22:20:35.958Z,97719.16
2022-10-05T22:30:38.589Z,97726.44
2022-10-05T22:40:40.724Z,97734.31
2022-10-05T22:50:46.889Z,97738.94
2022-10-05T23:00:58.080Z,97731.53
2022-10-05T23:11:05.675Z,97742.06
2022-10-05T23:21:09.264Z,97748.47
2022-10-05T23:31:11.366Z,97755.09
2022-10-05T23:41:14.010Z,97775.13
2022-10-05T23:51:16.359Z,97779.41
